sensor_id;sensor_type;location;lat;lon;timestamp;temperature;humidity
13697;DHT22;6920;50.080;8.226;2022-12-07T00:01:45;3.50;99.90
13697;DHT22;6920;50.080;8.226;2022-12-07T00:04:15;3.50;99.90
13697;DHT22;6920;50.080;8.226;2022-12-07T00:06:45;3.50;99.90
13697;DHT22;6920;50.080;8.226;2022-12-07T00:09:15;3.50;99.90
13697;DHT22;6920;50.080;8.226;2022-12-07T00:11:50;3.30;99.90
13697;DHT22;6920;50.080;8.226;2022-12-07T00:14:19;3.30;99.90
13697;DHT22;6920;50.080;8.226;2022-12-07T00:16:49;3.30;99.90
13697;DHT22;6920;50.080;8.226;2022-12-07T00:19:17;3.20;99.90
13697;DHT22;6920;50.080;8.226;2022-12-07T00:21:46;3.20;99.90
13697;DHT22;6920;50.080;8.226;2022-12-07T00:24:13;3.20;99.90
13697;DHT22;6920;50.080;8.226;2022-12-07T00:26:42;3.40;99.90
13697;DHT22;6920;50.080;8.226;2022-12-07T00:29:16;3.50;99.90
13697;DHT22;6920;50.080;8.226;2022-12-07T00:31:45;3.50;99.90
13697;DHT22;6920;50.080;8.226;2022-12-07T00:34:15;3.50;99.90
13697;DHT22;6920;50.080;8.226;2022-12-07T00:36:44;3.50;99.90
13697;DHT22;6920;50.080;8.226;2022-12-07T00:39:12;3.50;99.90
13697;DHT22;6920;50.080;8.226;2022-12-07T00:41:40;3.50;99.90
13697;DHT22;6920;50.080;8.226;2022-12-07T00:44:07;3.50;99.90
13697;DHT22;6920;50.080;8.226;2022-12-07T00:46:37;3.60;99.90
13697;DHT22;6920;50.080;8.226;2022-12-07T00:49:04;3.70;99.90
13697;DHT22;6920;50.080;8.226;2022-12-07T00:51:31;3.70;99.90
13697;DHT22;6920;50.080;8.226;2022-12-07T00:53:58;3.40;99.90
13697;DHT22;6920;50.080;8.226;2022-12-07T00:56:28;3.30;99.90
13697;DHT22;6920;50.080;8.226;2022-12-07T00:58:59;3.50;99.90
13697;DHT22;6920;50.080;8.226;2022-12-07T01:01:29;3.60;99.90
13697;DHT22;6920;50.080;8.226;2022-12-07T01:04:01;3.60;99.90
13697;DHT22;6920;50.080;8.226;2022-12-07T01:06:31;3.50;99.90
13697;DHT22;6920;50.080;8.226;2022-12-07T01:11:27;3.50;99.90
13697;DHT22;6920;50.080;8.226;2022-12-07T01:13:56;3.40;99.90
13697;DHT22;6920;50.080;8.226;2022-12-07T01:16:25;3.30;99.90
13697;DHT22;6920;50.080;8.226;2022-12-07T01:18:54;3.30;99.90
13697;DHT22;6920;50.080;8.226;2022-12-07T01:21:26;3.30;99.90
13697;DHT22;6920;50.080;8.226;2022-12-07T01:23:54;3.40;99.90
13697;DHT22;6920;50.080;8.226;2022-12-07T01:26:23;3.30;99.90
13697;DHT22;6920;50.080;8.226;2022-12-07T01:28:51;3.30;99.90
13697;DHT22;6920;50.080;8.226;2022-12-07T01:31:23;3.30;99.90
13697;DHT22;6920;50.080;8.226;2022-12-07T01:33:54;3.30;99.90
13697;DHT22;6920;50.080;8.226;2022-12-07T01:39:10;3.30;99.90
13697;DHT22;6920;50.080;8.226;2022-12-07T01:41:39;3.50;99.90
13697;DHT22;6920;50.080;8.226;2022-12-07T01:44:18;3.60;99.90
13697;DHT22;6920;50.080;8.226;2022-12-07T01:46:47;3.60;99.90
13697;DHT22;6920;50.080;8.226;2022-12-07T01:49:22;3.60;99.90
13697;DHT22;6920;50.080;8.226;2022-12-07T01:51:52;3.70;99.90
13697;DHT22;6920;50.080;8.226;2022-12-07T01:54:25;3.70;99.90
13697;DHT22;6920;50.080;8.226;2022-12-07T01:56:55;3.80;99.90
13697;DHT22;6920;50.080;8.226;2022-12-07T01:59:25;3.90;99.90
13697;DHT22;6920;50.080;8.226;2022-12-07T02:01:58;3.90;99.90
13697;DHT22;6920;50.080;8.226;2022-12-07T02:04:26;3.90;99.90
13697;DHT22;6920;50.080;8.226;2022-12-07T02:06:54;3.90;99.90
13697;DHT22;6920;50.080;8.226;2022-12-07T02:09:23;3.90;99.90
13697;DHT22;6920;50.080;8.226;2022-12-07T02:11:53;4.00;99.90
13697;DHT22;6920;50.080;8.226;2022-12-07T02:14:21;4.00;99.90
13697;DHT22;6920;50.080;8.226;2022-12-07T02:17:08;4.10;99.90
13697;DHT22;6920;50.080;8.226;2022-12-07T02:20:06;4.10;99.90
13697;DHT22;6920;50.080;8.226;2022-12-07T02:29:17;4.20;99.90
13697;DHT22;6920;50.080;8.226;2022-12-07T02:31:54;4.20;99.90
13697;DHT22;6920;50.080;8.226;2022-12-07T02:34:30;4.20;99.90
13697;DHT22;6920;50.080;8.226;2022-12-07T02:37:03;4.20;99.90
13697;DHT22;6920;50.080;8.226;2022-12-07T02:39:40;4.30;99.90
13697;DHT22;6920;50.080;8.226;2022-12-07T02:42:19;4.30;99.90
13697;DHT22;6920;50.080;8.226;2022-12-07T02:44:53;4.30;99.90
13697;DHT22;6920;50.080;8.226;2022-12-07T02:47:23;4.30;99.90
13697;DHT22;6920;50.080;8.226;2022-12-07T02:49:52;4.40;99.90
13697;DHT22;6920;50.080;8.226;2022-12-07T02:52:21;4.40;99.90
13697;DHT22;6920;50.080;8.226;2022-12-07T02:54:55;4.40;99.90
13697;DHT22;6920;50.080;8.226;2022-12-07T02:57:45;4.40;99.90
13697;DHT22;6920;50.080;8.226;2022-12-07T03:00:37;4.50;99.90
13697;DHT22;6920;50.080;8.226;2022-12-07T03:03:10;4.50;99.90
13697;DHT22;6920;50.080;8.226;2022-12-07T03:05:57;4.50;99.90
13697;DHT22;6920;50.080;8.226;2022-12-07T03:08:33;4.50;99.90
13697;DHT22;6920;50.080;8.226;2022-12-07T03:11:04;4.50;99.90
13697;DHT22;6920;50.080;8.226;2022-12-07T03:13:37;4.50;99.90
13697;DHT22;6920;50.080;8.226;2022-12-07T03:16:10;4.50;99.90
13697;DHT22;6920;50.080;8.226;2022-12-07T03:18:46;4.40;99.90
13697;DHT22;6920;50.080;8.226;2022-12-07T03:21:17;4.50;99.90
13697;DHT22;6920;50.080;8.226;2022-12-07T03:23:49;4.40;99.90
13697;DHT22;6920;50.080;8.226;2022-12-07T03:26:19;4.50;99.90
13697;DHT22;6920;50.080;8.226;2022-12-07T03:28:52;4.50;99.90
13697;DHT22;6920;50.080;8.226;2022-12-07T03:31:25;4.40;99.90
13697;DHT22;6920;50.080;8.226;2022-12-07T03:34:01;4.40;99.90
13697;DHT22;6920;50.080;8.226;2022-12-07T03:36:37;4.40;99.90
13697;DHT22;6920;50.080;8.226;2022-12-07T03:39:14;4.40;99.90
13697;DHT22;6920;50.080;8.226;2022-12-07T03:41:44;4.40;99.90
13697;DHT22;6920;50.080;8.226;2022-12-07T03:44:15;4.40;99.90
13697;DHT22;6920;50.080;8.226;2022-12-07T03:46:52;4.40;99.90
13697;DHT22;6920;50.080;8.226;2022-12-07T03:49:25;4.40;99.90
13697;DHT22;6920;50.080;8.226;2022-12-07T03:51:57;4.40;99.90
13697;DHT22;6920;50.080;8.226;2022-12-07T03:54:31;4.40;99.90
13697;DHT22;6920;50.080;8.226;2022-12-07T03:57:01;4.50;99.90
13697;DHT22;6920;50.080;8.226;2022-12-07T03:59:29;4.50;99.90
13697;DHT22;6920;50.080;8.226;2022-12-07T04:02:06;4.50;99.90
13697;DHT22;6920;50.080;8.226;2022-12-07T04:04:34;4.50;99.90
13697;DHT22;6920;50.080;8.226;2022-12-07T04:07:01;4.50;99.90
13697;DHT22;6920;50.080;8.226;2022-12-07T04:09:30;4.60;99.90
13697;DHT22;6920;50.080;8.226;2022-12-07T04:11:58;4.60;99.90
13697;DHT22;6920;50.080;8.226;2022-12-07T04:14:25;4.60;99.90
13697;DHT22;6920;50.080;8.226;2022-12-07T04:16:55;4.60;99.90
13697;DHT22;6920;50.080;8.226;2022-12-07T04:19:31;4.60;99.90
13697;DHT22;6920;50.080;8.226;2022-12-07T04:21:59;4.70;99.90
13697;DHT22;6920;50.080;8.226;2022-12-07T04:24:27;4.70;99.90
13697;DHT22;6920;50.080;8.226;2022-12-07T04:26:54;4.80;99.90
13697;DHT22;6920;50.080;8.226;2022-12-07T04:29:23;4.80;99.90
13697;DHT22;6920;50.080;8.226;2022-12-07T04:31:52;4.80;99.90
13697;DHT22;6920;50.080;8.226;2022-12-07T04:34:20;4.80;99.90
13697;DHT22;6920;50.080;8.226;2022-12-07T04:36:52;4.80;99.90
13697;DHT22;6920;50.080;8.226;2022-12-07T04:39:24;4.80;99.90
13697;DHT22;6920;50.080;8.226;2022-12-07T04:41:52;4.90;99.90
13697;DHT22;6920;50.080;8.226;2022-12-07T04:44:20;4.90;99.90
13697;DHT22;6920;50.080;8.226;2022-12-07T04:46:47;4.90;99.90
13697;DHT22;6920;50.080;8.226;2022-12-07T04:49:16;4.90;99.90
13697;DHT22;6920;50.080;8.226;2022-12-07T04:51:43;5.00;99.90
13697;DHT22;6920;50.080;8.226;2022-12-07T04:54:14;5.00;99.90
13697;DHT22;6920;50.080;8.226;2022-12-07T04:56:43;4.90;99.90
13697;DHT22;6920;50.080;8.226;2022-12-07T04:59:13;4.90;99.90
13697;DHT22;6920;50.080;8.226;2022-12-07T05:01:42;4.90;99.90
13697;DHT22;6920;50.080;8.226;2022-12-07T05:04:09;5.00;99.90
13697;DHT22;6920;50.080;8.226;2022-12-07T05:06:41;4.80;99.90
13697;DHT22;6920;50.080;8.226;2022-12-07T05:09:08;5.00;99.90
13697;DHT22;6920;50.080;8.226;2022-12-07T05:11:39;5.00;99.90
13697;DHT22;6920;50.080;8.226;2022-12-07T05:14:10;5.00;99.90
13697;DHT22;6920;50.080;8.226;2022-12-07T05:16:39;5.00;99.90
13697;DHT22;6920;50.080;8.226;2022-12-07T05:19:09;5.00;99.90
13697;DHT22;6920;50.080;8.226;2022-12-07T05:21:40;5.00;99.90
13697;DHT22;6920;50.080;8.226;2022-12-07T05:24:13;5.00;99.90
13697;DHT22;6920;50.080;8.226;2022-12-07T05:26:49;5.00;99.90
13697;DHT22;6920;50.080;8.226;2022-12-07T05:29:18;5.00;99.90
13697;DHT22;6920;50.080;8.226;2022-12-07T05:31:47;5.00;99.90
13697;DHT22;6920;50.080;8.226;2022-12-07T05:34:14;4.90;99.90
13697;DHT22;6920;50.080;8.226;2022-12-07T05:36:41;5.00;99.90
13697;DHT22;6920;50.080;8.226;2022-12-07T05:39:09;5.00;99.90
13697;DHT22;6920;50.080;8.226;2022-12-07T05:41:39;4.90;99.90
13697;DHT22;6920;50.080;8.226;2022-12-07T05:44:25;4.90;99.90
13697;DHT22;6920;50.080;8.226;2022-12-07T05:46:53;5.10;99.90
13697;DHT22;6920;50.080;8.226;2022-12-07T05:49:20;5.10;99.90
13697;DHT22;6920;50.080;8.226;2022-12-07T05:51:47;5.10;99.90
13697;DHT22;6920;50.080;8.226;2022-12-07T05:54:15;5.10;99.90
13697;DHT22;6920;50.080;8.226;2022-12-07T05:56:44;5.10;99.90
13697;DHT22;6920;50.080;8.226;2022-12-07T05:59:15;5.10;99.90
13697;DHT22;6920;50.080;8.226;2022-12-07T06:02:01;5.10;99.90
13697;DHT22;6920;50.080;8.226;2022-12-07T06:04:32;5.00;99.90
13697;DHT22;6920;50.080;8.226;2022-12-07T06:07:08;5.10;99.90
13697;DHT22;6920;50.080;8.226;2022-12-07T06:09:37;5.10;99.90
13697;DHT22;6920;50.080;8.226;2022-12-07T06:12:06;5.10;99.90
13697;DHT22;6920;50.080;8.226;2022-12-07T06:14:51;5.10;99.90
13697;DHT22;6920;50.080;8.226;2022-12-07T06:17:22;5.10;99.90
13697;DHT22;6920;50.080;8.226;2022-12-07T06:19:49;5.10;99.90
13697;DHT22;6920;50.080;8.226;2022-12-07T06:22:18;5.10;99.90
13697;DHT22;6920;50.080;8.226;2022-12-07T06:24:56;5.10;99.90
13697;DHT22;6920;50.080;8.226;2022-12-07T06:27:26;5.10;99.90
13697;DHT22;6920;50.080;8.226;2022-12-07T06:29:53;5.10;99.90
13697;DHT22;6920;50.080;8.226;2022-12-07T06:32:24;5.10;99.90
13697;DHT22;6920;50.080;8.226;2022-12-07T06:34:53;5.10;99.90
13697;DHT22;6920;50.080;8.226;2022-12-07T06:37:22;5.00;99.90
13697;DHT22;6920;50.080;8.226;2022-12-07T06:39:53;5.00;99.90
13697;DHT22;6920;50.080;8.226;2022-12-07T06:42:23;5.00;99.90
13697;DHT22;6920;50.080;8.226;2022-12-07T06:44:50;4.90;99.90
13697;DHT22;6920;50.080;8.226;2022-12-07T06:47:19;4.90;99.90
13697;DHT22;6920;50.080;8.226;2022-12-07T06:49:47;4.90;99.90
13697;DHT22;6920;50.080;8.226;2022-12-07T06:52:15;4.90;99.90
13697;DHT22;6920;50.080;8.226;2022-12-07T06:54:43;5.00;99.90
13697;DHT22;6920;50.080;8.226;2022-12-07T06:57:13;5.00;99.90
13697;DHT22;6920;50.080;8.226;2022-12-07T06:59:40;5.00;99.90
13697;DHT22;6920;50.080;8.226;2022-12-07T07:02:10;4.90;99.90
13697;DHT22;6920;50.080;8.226;2022-12-07T07:04:39;4.90;99.90
13697;DHT22;6920;50.080;8.226;2022-12-07T07:07:08;4.90;99.90
13697;DHT22;6920;50.080;8.226;2022-12-07T07:09:36;4.90;99.90
13697;DHT22;6920;50.080;8.226;2022-12-07T07:12:06;4.80;99.90
13697;DHT22;6920;50.080;8.226;2022-12-07T07:14:34;4.90;99.90
13697;DHT22;6920;50.080;8.226;2022-12-07T07:17:02;4.80;99.90
13697;DHT22;6920;50.080;8.226;2022-12-07T07:19:29;4.80;99.90
13697;DHT22;6920;50.080;8.226;2022-12-07T07:21:57;4.80;99.90
13697;DHT22;6920;50.080;8.226;2022-12-07T07:24:28;4.80;99.90
13697;DHT22;6920;50.080;8.226;2022-12-07T07:26:55;4.80;99.90
13697;DHT22;6920;50.080;8.226;2022-12-07T07:29:25;4.80;99.90
13697;DHT22;6920;50.080;8.226;2022-12-07T07:31:55;4.80;99.90
13697;DHT22;6920;50.080;8.226;2022-12-07T07:34:24;4.80;99.90
13697;DHT22;6920;50.080;8.226;2022-12-07T07:36:52;4.80;99.90
13697;DHT22;6920;50.080;8.226;2022-12-07T07:39:20;4.80;99.90
13697;DHT22;6920;50.080;8.226;2022-12-07T07:41:48;4.90;99.90
13697;DHT22;6920;50.080;8.226;2022-12-07T07:44:15;5.00;99.90
13697;DHT22;6920;50.080;8.226;2022-12-07T07:46:44;4.90;99.90
13697;DHT22;6920;50.080;8.226;2022-12-07T07:49:13;4.90;99.90
13697;DHT22;6920;50.080;8.226;2022-12-07T07:51:41;4.90;99.90
13697;DHT22;6920;50.080;8.226;2022-12-07T07:54:10;4.90;99.90
13697;DHT22;6920;50.080;8.226;2022-12-07T07:56:37;4.90;99.90
13697;DHT22;6920;50.080;8.226;2022-12-07T07:59:05;4.90;99.90
13697;DHT22;6920;50.080;8.226;2022-12-07T08:01:38;4.90;99.90
13697;DHT22;6920;50.080;8.226;2022-12-07T08:04:12;5.00;99.90
13697;DHT22;6920;50.080;8.226;2022-12-07T08:06:40;5.00;99.90
13697;DHT22;6920;50.080;8.226;2022-12-07T08:09:09;5.10;99.90
13697;DHT22;6920;50.080;8.226;2022-12-07T08:14:06;5.10;99.90
13697;DHT22;6920;50.080;8.226;2022-12-07T08:16:35;5.20;99.90
13697;DHT22;6920;50.080;8.226;2022-12-07T08:19:04;5.20;99.90
13697;DHT22;6920;50.080;8.226;2022-12-07T08:21:34;5.30;99.90
13697;DHT22;6920;50.080;8.226;2022-12-07T08:24:03;5.50;99.90
13697;DHT22;6920;50.080;8.226;2022-12-07T08:26:32;5.50;99.90
13697;DHT22;6920;50.080;8.226;2022-12-07T08:28:59;5.50;99.90
13697;DHT22;6920;50.080;8.226;2022-12-07T08:31:29;5.50;99.90
13697;DHT22;6920;50.080;8.226;2022-12-07T08:33:57;5.70;99.90
13697;DHT22;6920;50.080;8.226;2022-12-07T08:36:24;5.70;99.90
13697;DHT22;6920;50.080;8.226;2022-12-07T08:38:54;6.20;99.90
13697;DHT22;6920;50.080;8.226;2022-12-07T08:41:22;5.80;99.90
13697;DHT22;6920;50.080;8.226;2022-12-07T08:43:51;5.80;99.90
13697;DHT22;6920;50.080;8.226;2022-12-07T08:46:21;5.80;99.90
13697;DHT22;6920;50.080;8.226;2022-12-07T08:48:54;5.80;99.90
13697;DHT22;6920;50.080;8.226;2022-12-07T08:51:24;5.80;99.90
13697;DHT22;6920;50.080;8.226;2022-12-07T08:53:55;5.70;99.90
13697;DHT22;6920;50.080;8.226;2022-12-07T08:56:26;5.80;99.90
13697;DHT22;6920;50.080;8.226;2022-12-07T08:58:55;5.90;99.90
13697;DHT22;6920;50.080;8.226;2022-12-07T09:01:25;6.00;99.90
13697;DHT22;6920;50.080;8.226;2022-12-07T09:03:54;6.00;99.90
13697;DHT22;6920;50.080;8.226;2022-12-07T09:06:27;5.90;99.90
13697;DHT22;6920;50.080;8.226;2022-12-07T09:08:59;5.90;99.90
13697;DHT22;6920;50.080;8.226;2022-12-07T09:11:28;6.00;99.90
13697;DHT22;6920;50.080;8.226;2022-12-07T09:13:57;6.00;99.90
13697;DHT22;6920;50.080;8.226;2022-12-07T09:16:24;6.00;99.90
13697;DHT22;6920;50.080;8.226;2022-12-07T09:18:53;6.10;99.90
13697;DHT22;6920;50.080;8.226;2022-12-07T09:21:20;6.30;99.90
13697;DHT22;6920;50.080;8.226;2022-12-07T09:23:48;6.50;99.90
13697;DHT22;6920;50.080;8.226;2022-12-07T09:26:19;6.50;99.90
13697;DHT22;6920;50.080;8.226;2022-12-07T09:28:46;6.40;99.90
13697;DHT22;6920;50.080;8.226;2022-12-07T09:31:14;6.40;99.90
13697;DHT22;6920;50.080;8.226;2022-12-07T09:33:46;6.50;99.90
13697;DHT22;6920;50.080;8.226;2022-12-07T09:36:13;6.50;99.90
13697;DHT22;6920;50.080;8.226;2022-12-07T09:38:44;6.50;99.90
13697;DHT22;6920;50.080;8.226;2022-12-07T09:41:18;6.40;99.90
13697;DHT22;6920;50.080;8.226;2022-12-07T09:43:49;6.30;99.90
13697;DHT22;6920;50.080;8.226;2022-12-07T09:46:19;6.30;99.90
13697;DHT22;6920;50.080;8.226;2022-12-07T09:48:49;6.30;99.90
13697;DHT22;6920;50.080;8.226;2022-12-07T09:51:35;6.30;99.90
13697;DHT22;6920;50.080;8.226;2022-12-07T09:54:04;6.40;99.90
13697;DHT22;6920;50.080;8.226;2022-12-07T09:56:42;6.40;99.90
13697;DHT22;6920;50.080;8.226;2022-12-07T09:59:16;6.50;99.90
13697;DHT22;6920;50.080;8.226;2022-12-07T10:02:04;6.70;99.90
13697;DHT22;6920;50.080;8.226;2022-12-07T10:04:49;6.70;99.90
13697;DHT22;6920;50.080;8.226;2022-12-07T10:07:21;6.70;99.90
13697;DHT22;6920;50.080;8.226;2022-12-07T10:10:22;6.70;99.90
13697;DHT22;6920;50.080;8.226;2022-12-07T10:12:57;6.90;99.90
13697;DHT22;6920;50.080;8.226;2022-12-07T10:18:26;7.10;99.90
13697;DHT22;6920;50.080;8.226;2022-12-07T10:21:10;7.10;99.90
13697;DHT22;6920;50.080;8.226;2022-12-07T10:23:40;7.10;99.90
13697;DHT22;6920;50.080;8.226;2022-12-07T10:26:29;7.20;99.90
13697;DHT22;6920;50.080;8.226;2022-12-07T10:29:01;7.10;99.90
13697;DHT22;6920;50.080;8.226;2022-12-07T10:31:31;7.10;99.90
13697;DHT22;6920;50.080;8.226;2022-12-07T10:34:03;7.10;99.90
13697;DHT22;6920;50.080;8.226;2022-12-07T10:36:35;7.10;99.90
13697;DHT22;6920;50.080;8.226;2022-12-07T10:39:13;7.10;99.90
13697;DHT22;6920;50.080;8.226;2022-12-07T10:41:55;7.10;99.90
13697;DHT22;6920;50.080;8.226;2022-12-07T10:44:26;7.20;99.90
13697;DHT22;6920;50.080;8.226;2022-12-07T10:47:16;7.30;99.90
13697;DHT22;6920;50.080;8.226;2022-12-07T10:50:23;7.50;99.90
13697;DHT22;6920;50.080;8.226;2022-12-07T10:53:38;7.60;99.90
13697;DHT22;6920;50.080;8.226;2022-12-07T10:56:31;7.40;99.90
13697;DHT22;6920;50.080;8.226;2022-12-07T10:59:22;7.20;99.90
13697;DHT22;6920;50.080;8.226;2022-12-07T11:02:01;7.20;99.90
13697;DHT22;6920;50.080;8.226;2022-12-07T11:04:40;7.10;99.90
13697;DHT22;6920;50.080;8.226;2022-12-07T11:07:17;7.20;99.90
13697;DHT22;6920;50.080;8.226;2022-12-07T11:10:01;7.20;99.90
13697;DHT22;6920;50.080;8.226;2022-12-07T11:12:43;7.10;99.90
13697;DHT22;6920;50.080;8.226;2022-12-07T11:15:19;7.20;99.90
13697;DHT22;6920;50.080;8.226;2022-12-07T11:17:56;7.40;99.90
13697;DHT22;6920;50.080;8.226;2022-12-07T11:20:44;7.50;99.90
13697;DHT22;6920;50.080;8.226;2022-12-07T11:23:42;7.60;99.90
13697;DHT22;6920;50.080;8.226;2022-12-07T11:26:38;7.60;99.90
13697;DHT22;6920;50.080;8.226;2022-12-07T11:29:27;7.70;99.90
13697;DHT22;6920;50.080;8.226;2022-12-07T11:32:12;7.60;99.90
13697;DHT22;6920;50.080;8.226;2022-12-07T11:34:52;7.40;99.90
13697;DHT22;6920;50.080;8.226;2022-12-07T11:37:25;7.50;99.90
13697;DHT22;6920;50.080;8.226;2022-12-07T11:40:02;7.80;99.90
13697;DHT22;6920;50.080;8.226;2022-12-07T11:42:38;7.80;99.90
13697;DHT22;6920;50.080;8.226;2022-12-07T11:45:15;7.70;99.90
13697;DHT22;6920;50.080;8.226;2022-12-07T11:47:54;7.40;99.90
13697;DHT22;6920;50.080;8.226;2022-12-07T11:50:47;7.20;99.90
13697;DHT22;6920;50.080;8.226;2022-12-07T11:53:20;6.60;99.90
13697;DHT22;6920;50.080;8.226;2022-12-07T11:55:53;6.90;99.90
13697;DHT22;6920;50.080;8.226;2022-12-07T11:58:39;6.80;99.90
13697;DHT22;6920;50.080;8.226;2022-12-07T12:01:18;6.70;99.90
13697;DHT22;6920;50.080;8.226;2022-12-07T12:04:00;6.80;99.90
13697;DHT22;6920;50.080;8.226;2022-12-07T12:06:31;6.90;99.90
13697;DHT22;6920;50.080;8.226;2022-12-07T12:09:06;6.80;99.90
13697;DHT22;6920;50.080;8.226;2022-12-07T12:12:04;6.90;99.90
13697;DHT22;6920;50.080;8.226;2022-12-07T12:14:44;7.10;99.90
13697;DHT22;6920;50.080;8.226;2022-12-07T12:20:20;7.40;99.90
13697;DHT22;6920;50.080;8.226;2022-12-07T12:22:53;7.30;99.90
13697;DHT22;6920;50.080;8.226;2022-12-07T12:25:29;7.40;99.90
13697;DHT22;6920;50.080;8.226;2022-12-07T12:28:02;7.30;99.90
13697;DHT22;6920;50.080;8.226;2022-12-07T12:30:36;7.30;99.90
13697;DHT22;6920;50.080;8.226;2022-12-07T12:33:13;7.30;99.90
13697;DHT22;6920;50.080;8.226;2022-12-07T12:35:42;7.40;99.90
13697;DHT22;6920;50.080;8.226;2022-12-07T12:38:50;7.40;99.90
13697;DHT22;6920;50.080;8.226;2022-12-07T12:47:43;7.60;99.90
13697;DHT22;6920;50.080;8.226;2022-12-07T12:50:21;7.60;99.90
13697;DHT22;6920;50.080;8.226;2022-12-07T12:53:17;7.70;99.90
13697;DHT22;6920;50.080;8.226;2022-12-07T12:59:21;7.50;99.90
13697;DHT22;6920;50.080;8.226;2022-12-07T13:01:50;7.30;99.90
13697;DHT22;6920;50.080;8.226;2022-12-07T13:04:49;6.90;99.90
13697;DHT22;6920;50.080;8.226;2022-12-07T13:07:50;6.80;99.90
13697;DHT22;6920;50.080;8.226;2022-12-07T13:10:39;6.70;99.90
13697;DHT22;6920;50.080;8.226;2022-12-07T13:13:32;6.60;99.90
13697;DHT22;6920;50.080;8.226;2022-12-07T13:16:40;6.60;99.90
13697;DHT22;6920;50.080;8.226;2022-12-07T13:22:50;6.60;99.90
13697;DHT22;6920;50.080;8.226;2022-12-07T13:25:40;6.60;99.90
13697;DHT22;6920;50.080;8.226;2022-12-07T13:28:15;6.60;99.90
13697;DHT22;6920;50.080;8.226;2022-12-07T13:30:58;6.50;99.90
13697;DHT22;6920;50.080;8.226;2022-12-07T13:33:30;6.30;99.90
13697;DHT22;6920;50.080;8.226;2022-12-07T13:35:57;6.30;99.90
13697;DHT22;6920;50.080;8.226;2022-12-07T13:38:29;6.30;99.90
13697;DHT22;6920;50.080;8.226;2022-12-07T13:41:16;6.30;99.90
13697;DHT22;6920;50.080;8.226;2022-12-07T13:43:49;6.30;99.90
13697;DHT22;6920;50.080;8.226;2022-12-07T13:46:19;6.10;99.90
13697;DHT22;6920;50.080;8.226;2022-12-07T13:48:49;6.00;99.90
13697;DHT22;6920;50.080;8.226;2022-12-07T13:51:23;6.00;99.90
13697;DHT22;6920;50.080;8.226;2022-12-07T13:53:53;5.90;99.90
13697;DHT22;6920;50.080;8.226;2022-12-07T13:56:28;5.90;99.90
13697;DHT22;6920;50.080;8.226;2022-12-07T13:59:00;5.80;99.90
13697;DHT22;6920;50.080;8.226;2022-12-07T14:01:31;5.90;99.90
13697;DHT22;6920;50.080;8.226;2022-12-07T14:04:24;5.90;99.90
13697;DHT22;6920;50.080;8.226;2022-12-07T14:06:56;5.80;99.90
13697;DHT22;6920;50.080;8.226;2022-12-07T14:09:24;5.80;99.90
13697;DHT22;6920;50.080;8.226;2022-12-07T14:11:55;5.90;99.90
13697;DHT22;6920;50.080;8.226;2022-12-07T14:14:29;5.90;99.90
13697;DHT22;6920;50.080;8.226;2022-12-07T14:17:15;5.90;99.90
13697;DHT22;6920;50.080;8.226;2022-12-07T14:19:50;5.90;99.90
13697;DHT22;6920;50.080;8.226;2022-12-07T14:22:27;5.80;99.90
13697;DHT22;6920;50.080;8.226;2022-12-07T14:25:17;5.70;99.90
13697;DHT22;6920;50.080;8.226;2022-12-07T14:27:55;5.70;99.90
13697;DHT22;6920;50.080;8.226;2022-12-07T14:30:26;5.80;99.90
13697;DHT22;6920;50.080;8.226;2022-12-07T14:32:57;5.80;99.90
13697;DHT22;6920;50.080;8.226;2022-12-07T14:35:26;5.80;99.90
13697;DHT22;6920;50.080;8.226;2022-12-07T14:37:53;5.70;99.90
13697;DHT22;6920;50.080;8.226;2022-12-07T14:40:23;5.70;99.90
13697;DHT22;6920;50.080;8.226;2022-12-07T14:42:56;5.70;99.90
13697;DHT22;6920;50.080;8.226;2022-12-07T14:45:32;5.70;99.90
13697;DHT22;6920;50.080;8.226;2022-12-07T14:48:07;5.70;99.90
13697;DHT22;6920;50.080;8.226;2022-12-07T14:50:43;5.70;99.90
13697;DHT22;6920;50.080;8.226;2022-12-07T14:53:14;5.70;99.90
13697;DHT22;6920;50.080;8.226;2022-12-07T14:55:43;6.00;99.90
13697;DHT22;6920;50.080;8.226;2022-12-07T14:58:26;5.70;99.90
13697;DHT22;6920;50.080;8.226;2022-12-07T15:00:57;5.60;99.90
13697;DHT22;6920;50.080;8.226;2022-12-07T15:03:26;5.60;99.90
13697;DHT22;6920;50.080;8.226;2022-12-07T15:05:54;5.60;99.90
13697;DHT22;6920;50.080;8.226;2022-12-07T15:08:21;5.60;99.90
13697;DHT22;6920;50.080;8.226;2022-12-07T15:10:49;5.70;99.90
13697;DHT22;6920;50.080;8.226;2022-12-07T15:13:17;5.80;99.90
13697;DHT22;6920;50.080;8.226;2022-12-07T15:16:02;5.80;99.90
13697;DHT22;6920;50.080;8.226;2022-12-07T15:18:30;5.80;99.90
13697;DHT22;6920;50.080;8.226;2022-12-07T15:20:59;5.70;99.90
13697;DHT22;6920;50.080;8.226;2022-12-07T15:23:26;5.70;99.90
13697;DHT22;6920;50.080;8.226;2022-12-07T15:25:53;5.80;99.90
13697;DHT22;6920;50.080;8.226;2022-12-07T15:28:22;5.80;99.90
13697;DHT22;6920;50.080;8.226;2022-12-07T15:33:18;5.80;99.90
13697;DHT22;6920;50.080;8.226;2022-12-07T15:35:45;5.70;99.90
13697;DHT22;6920;50.080;8.226;2022-12-07T15:38:14;5.70;99.90
13697;DHT22;6920;50.080;8.226;2022-12-07T15:40:42;5.60;99.90
13697;DHT22;6920;50.080;8.226;2022-12-07T15:43:13;5.60;99.90
13697;DHT22;6920;50.080;8.226;2022-12-07T15:45:57;5.60;99.90
13697;DHT22;6920;50.080;8.226;2022-12-07T15:50:52;5.50;99.90
13697;DHT22;6920;50.080;8.226;2022-12-07T15:53:22;5.50;99.90
13697;DHT22;6920;50.080;8.226;2022-12-07T15:55:50;5.50;99.90
13697;DHT22;6920;50.080;8.226;2022-12-07T15:58:18;5.50;99.90
13697;DHT22;6920;50.080;8.226;2022-12-07T16:00:46;5.50;99.90
13697;DHT22;6920;50.080;8.226;2022-12-07T16:03:18;5.40;99.90
13697;DHT22;6920;50.080;8.226;2022-12-07T16:05:48;5.40;99.90
13697;DHT22;6920;50.080;8.226;2022-12-07T16:08:15;5.40;99.90
13697;DHT22;6920;50.080;8.226;2022-12-07T16:10:42;5.30;99.90
13697;DHT22;6920;50.080;8.226;2022-12-07T16:13:09;5.30;99.90
13697;DHT22;6920;50.080;8.226;2022-12-07T16:15:38;5.30;99.90
13697;DHT22;6920;50.080;8.226;2022-12-07T16:18:07;5.30;99.90
13697;DHT22;6920;50.080;8.226;2022-12-07T16:20:35;5.10;99.90
13697;DHT22;6920;50.080;8.226;2022-12-07T16:23:04;5.10;99.90
13697;DHT22;6920;50.080;8.226;2022-12-07T16:25:32;5.20;99.90
13697;DHT22;6920;50.080;8.226;2022-12-07T16:28:05;5.20;99.90
13697;DHT22;6920;50.080;8.226;2022-12-07T16:30:41;5.10;99.90
13697;DHT22;6920;50.080;8.226;2022-12-07T16:33:11;5.00;99.90
13697;DHT22;6920;50.080;8.226;2022-12-07T16:35:40;5.00;99.90
13697;DHT22;6920;50.080;8.226;2022-12-07T16:38:08;5.00;99.90
13697;DHT22;6920;50.080;8.226;2022-12-07T16:40:36;5.00;99.90
13697;DHT22;6920;50.080;8.226;2022-12-07T16:43:04;5.00;99.90
13697;DHT22;6920;50.080;8.226;2022-12-07T16:45:33;5.00;99.90
13697;DHT22;6920;50.080;8.226;2022-12-07T16:48:04;5.10;99.90
13697;DHT22;6920;50.080;8.226;2022-12-07T16:50:33;5.10;99.90
13697;DHT22;6920;50.080;8.226;2022-12-07T16:53:08;5.10;99.90
13697;DHT22;6920;50.080;8.226;2022-12-07T16:55:36;5.10;99.90
13697;DHT22;6920;50.080;8.226;2022-12-07T16:58:05;5.10;99.90
13697;DHT22;6920;50.080;8.226;2022-12-07T17:00:34;5.20;99.90
13697;DHT22;6920;50.080;8.226;2022-12-07T17:03:03;5.10;99.90
13697;DHT22;6920;50.080;8.226;2022-12-07T17:05:32;5.20;99.90
13697;DHT22;6920;50.080;8.226;2022-12-07T17:07:59;5.20;99.90
13697;DHT22;6920;50.080;8.226;2022-12-07T17:10:29;5.20;99.90
13697;DHT22;6920;50.080;8.226;2022-12-07T17:12:56;5.20;99.90
13697;DHT22;6920;50.080;8.226;2022-12-07T17:15:25;5.20;99.90
13697;DHT22;6920;50.080;8.226;2022-12-07T17:17:53;5.20;99.90